sensor_id;sensor_type;location;lat;lon;timestamp;temperature;humidity
39601;DHT22;25297;44.758;11.310;2023-04-15T00:01:20;13.00;84.40
39601;DHT22;25297;44.758;11.310;2023-04-15T00:03:45;13.00;84.50
39601;DHT22;25297;44.758;11.310;2023-04-15T00:06:12;12.90;84.80
39601;DHT22;25297;44.758;11.310;2023-04-15T00:08:38;12.90;84.60
39601;DHT22;25297;44.758;11.310;2023-04-15T00:11:03;12.90;85.00
39601;DHT22;25297;44.758;11.310;2023-04-15T00:13:30;12.80;84.70
39601;DHT22;25297;44.758;11.310;2023-04-15T00:15:56;12.80;85.00
39601;DHT22;25297;44.758;11.310;2023-04-15T00:18:22;12.70;84.80
39601;DHT22;25297;44.758;11.310;2023-04-15T00:20:48;12.70;84.40
39601;DHT22;25297;44.758;11.310;2023-04-15T00:23:13;12.70;84.90
39601;DHT22;25297;44.758;11.310;2023-04-15T00:25:39;12.70;85.10
39601;DHT22;25297;44.758;11.310;2023-04-15T00:28:04;12.70;85.10
39601;DHT22;25297;44.758;11.310;2023-04-15T00:30:30;12.60;84.90
39601;DHT22;25297;44.758;11.310;2023-04-15T00:32:55;12.60;84.90
39601;DHT22;25297;44.758;11.310;2023-04-15T00:35:21;12.60;85.20
39601;DHT22;25297;44.758;11.310;2023-04-15T00:37:48;12.60;85.40
39601;DHT22;25297;44.758;11.310;2023-04-15T00:40:13;12.60;85.40
39601;DHT22;25297;44.758;11.310;2023-04-15T00:42:41;12.50;85.30
39601;DHT22;25297;44.758;11.310;2023-04-15T00:45:07;12.50;85.20
39601;DHT22;25297;44.758;11.310;2023-04-15T00:47:33;12.50;84.90
39601;DHT22;25297;44.758;11.310;2023-04-15T00:49:59;12.50;84.70
39601;DHT22;25297;44.758;11.310;2023-04-15T00:52:25;12.50;84.50
39601;DHT22;25297;44.758;11.310;2023-04-15T00:54:50;12.40;84.70
39601;DHT22;25297;44.758;11.310;2023-04-15T00:57:17;12.40;85.20
39601;DHT22;25297;44.758;11.310;2023-04-15T00:59:43;12.40;85.20
39601;DHT22;25297;44.758;11.310;2023-04-15T01:02:08;12.20;85.10
39601;DHT22;25297;44.758;11.310;2023-04-15T01:04:34;12.20;85.10
39601;DHT22;25297;44.758;11.310;2023-04-15T01:07:00;12.10;85.20
39601;DHT22;25297;44.758;11.310;2023-04-15T01:09:26;12.10;85.20
39601;DHT22;25297;44.758;11.310;2023-04-15T01:11:52;12.00;85.10
39601;DHT22;25297;44.758;11.310;2023-04-15T01:14:18;12.00;84.80
39601;DHT22;25297;44.758;11.310;2023-04-15T01:16:43;12.00;85.20
39601;DHT22;25297;44.758;11.310;2023-04-15T01:19:09;11.90;85.40
39601;DHT22;25297;44.758;11.310;2023-04-15T01:21:35;11.90;85.40
39601;DHT22;25297;44.758;11.310;2023-04-15T01:24:01;11.90;85.40
39601;DHT22;25297;44.758;11.310;2023-04-15T01:26:28;11.80;85.10
39601;DHT22;25297;44.758;11.310;2023-04-15T01:28:55;11.90;85.00
39601;DHT22;25297;44.758;11.310;2023-04-15T01:31:20;11.90;84.90
39601;DHT22;25297;44.758;11.310;2023-04-15T01:33:46;11.80;84.70
39601;DHT22;25297;44.758;11.310;2023-04-15T01:36:11;11.90;84.30
39601;DHT22;25297;44.758;11.310;2023-04-15T01:38:37;11.80;84.40
39601;DHT22;25297;44.758;11.310;2023-04-15T01:41:03;11.70;84.50
39601;DHT22;25297;44.758;11.310;2023-04-15T01:43:31;11.70;84.50
39601;DHT22;25297;44.758;11.310;2023-04-15T01:45:56;11.70;84.70
39601;DHT22;25297;44.758;11.310;2023-04-15T01:48:22;11.70;84.90
39601;DHT22;25297;44.758;11.310;2023-04-15T01:50:47;11.70;85.10
39601;DHT22;25297;44.758;11.310;2023-04-15T01:53:13;11.80;85.00
39601;DHT22;25297;44.758;11.310;2023-04-15T01:55:40;11.80;84.90
39601;DHT22;25297;44.758;11.310;2023-04-15T01:58:06;11.80;84.10
39601;DHT22;25297;44.758;11.310;2023-04-15T02:00:31;11.80;84.40
39601;DHT22;25297;44.758;11.310;2023-04-15T02:02:57;11.70;84.60
39601;DHT22;25297;44.758;11.310;2023-04-15T02:05:24;11.80;84.80
39601;DHT22;25297;44.758;11.310;2023-04-15T02:07:50;11.70;84.60
39601;DHT22;25297;44.758;11.310;2023-04-15T02:10:15;11.70;84.40
39601;DHT22;25297;44.758;11.310;2023-04-15T02:12:41;11.70;84.70
39601;DHT22;25297;44.758;11.310;2023-04-15T02:15:07;11.60;84.80
39601;DHT22;25297;44.758;11.310;2023-04-15T02:17:33;11.60;84.40
39601;DHT22;25297;44.758;11.310;2023-04-15T02:19:59;11.60;84.50
39601;DHT22;25297;44.758;11.310;2023-04-15T02:22:25;11.60;84.70
39601;DHT22;25297;44.758;11.310;2023-04-15T02:24:51;11.50;84.60
39601;DHT22;25297;44.758;11.310;2023-04-15T02:27:16;11.50;84.30
39601;DHT22;25297;44.758;11.310;2023-04-15T02:29:43;11.50;84.40
39601;DHT22;25297;44.758;11.310;2023-04-15T02:32:08;11.50;84.40
39601;DHT22;25297;44.758;11.310;2023-04-15T02:34:36;11.50;84.80
39601;DHT22;25297;44.758;11.310;2023-04-15T02:37:03;11.50;84.80
39601;DHT22;25297;44.758;11.310;2023-04-15T02:39:29;11.50;84.60
39601;DHT22;25297;44.758;11.310;2023-04-15T02:41:55;11.50;84.10
39601;DHT22;25297;44.758;11.310;2023-04-15T02:44:23;11.50;83.80
39601;DHT22;25297;44.758;11.310;2023-04-15T02:46:49;11.40;83.90
39601;DHT22;25297;44.758;11.310;2023-04-15T02:49:17;11.40;83.60
39601;DHT22;25297;44.758;11.310;2023-04-15T02:51:42;11.40;83.70
39601;DHT22;25297;44.758;11.310;2023-04-15T02:54:09;11.30;83.80
39601;DHT22;25297;44.758;11.310;2023-04-15T02:56:35;11.30;84.00
39601;DHT22;25297;44.758;11.310;2023-04-15T02:59:00;11.30;84.30
39601;DHT22;25297;44.758;11.310;2023-04-15T03:01:26;11.30;84.40
39601;DHT22;25297;44.758;11.310;2023-04-15T03:03:51;11.30;84.60
39601;DHT22;25297;44.758;11.310;2023-04-15T03:06:17;11.30;85.30
39601;DHT22;25297;44.758;11.310;2023-04-15T03:08:42;11.30;84.80
39601;DHT22;25297;44.758;11.310;2023-04-15T03:11:08;11.30;84.90
39601;DHT22;25297;44.758;11.310;2023-04-15T03:13:33;11.30;84.80
39601;DHT22;25297;44.758;11.310;2023-04-15T03:15:59;11.30;84.70
39601;DHT22;25297;44.758;11.310;2023-04-15T03:18:24;11.30;85.20
39601;DHT22;25297;44.758;11.310;2023-04-15T03:20:50;11.20;85.40
39601;DHT22;25297;44.758;11.310;2023-04-15T03:23:16;11.20;85.70
39601;DHT22;25297;44.758;11.310;2023-04-15T03:25:41;11.20;86.00
39601;DHT22;25297;44.758;11.310;2023-04-15T03:28:07;11.20;86.10
39601;DHT22;25297;44.758;11.310;2023-04-15T03:30:32;11.20;86.40
39601;DHT22;25297;44.758;11.310;2023-04-15T03:32:58;11.20;86.40
39601;DHT22;25297;44.758;11.310;2023-04-15T03:35:23;11.20;86.20
39601;DHT22;25297;44.758;11.310;2023-04-15T03:37:49;11.30;86.10
39601;DHT22;25297;44.758;11.310;2023-04-15T03:40:15;11.20;86.50
39601;DHT22;25297;44.758;11.310;2023-04-15T03:42:40;11.30;86.20
39601;DHT22;25297;44.758;11.310;2023-04-15T03:45:06;11.20;86.20
39601;DHT22;25297;44.758;11.310;2023-04-15T03:47:32;11.20;87.30
39601;DHT22;25297;44.758;11.310;2023-04-15T03:49:57;11.20;87.90
39601;DHT22;25297;44.758;11.310;2023-04-15T03:52:23;11.20;87.50
39601;DHT22;25297;44.758;11.310;2023-04-15T03:54:48;11.20;87.50
39601;DHT22;25297;44.758;11.310;2023-04-15T03:57:14;11.20;87.40
39601;DHT22;25297;44.758;11.310;2023-04-15T03:59:39;11.10;87.50
39601;DHT22;25297;44.758;11.310;2023-04-15T04:02:05;11.00;87.30
39601;DHT22;25297;44.758;11.310;2023-04-15T04:04:31;11.00;87.30
39601;DHT22;25297;44.758;11.310;2023-04-15T04:06:56;10.90;87.50
39601;DHT22;25297;44.758;11.310;2023-04-15T04:09:22;10.90;87.90
39601;DHT22;25297;44.758;11.310;2023-04-15T04:11:47;10.90;88.20
39601;DHT22;25297;44.758;11.310;2023-04-15T04:14:13;10.90;88.30
39601;DHT22;25297;44.758;11.310;2023-04-15T04:16:38;11.00;88.30
39601;DHT22;25297;44.758;11.310;2023-04-15T04:19:04;11.00;88.20
39601;DHT22;25297;44.758;11.310;2023-04-15T04:21:29;11.00;88.60
39601;DHT22;25297;44.758;11.310;2023-04-15T04:23:55;11.10;88.50
39601;DHT22;25297;44.758;11.310;2023-04-15T04:26:21;11.10;88.40
39601;DHT22;25297;44.758;11.310;2023-04-15T04:28:47;11.20;88.10
39601;DHT22;25297;44.758;11.310;2023-04-15T04:31:12;11.20;87.20
39601;DHT22;25297;44.758;11.310;2023-04-15T04:33:38;11.20;86.90
39601;DHT22;25297;44.758;11.310;2023-04-15T04:36:03;11.20;86.40
39601;DHT22;25297;44.758;11.310;2023-04-15T04:38:29;11.20;86.00
39601;DHT22;25297;44.758;11.310;2023-04-15T04:40:54;11.10;85.90
39601;DHT22;25297;44.758;11.310;2023-04-15T04:43:20;11.10;85.90
39601;DHT22;25297;44.758;11.310;2023-04-15T04:45:46;11.10;85.90
39601;DHT22;25297;44.758;11.310;2023-04-15T04:48:12;11.10;85.90
39601;DHT22;25297;44.758;11.310;2023-04-15T04:50:37;11.00;86.10
39601;DHT22;25297;44.758;11.310;2023-04-15T04:53:03;11.00;86.30
39601;DHT22;25297;44.758;11.310;2023-04-15T04:55:28;10.90;86.00
39601;DHT22;25297;44.758;11.310;2023-04-15T04:57:54;10.90;85.60
39601;DHT22;25297;44.758;11.310;2023-04-15T05:00:20;10.90;85.40
39601;DHT22;25297;44.758;11.310;2023-04-15T05:02:45;10.90;85.40
39601;DHT22;25297;44.758;11.310;2023-04-15T05:05:11;10.80;85.60
39601;DHT22;25297;44.758;11.310;2023-04-15T05:07:37;10.80;85.90
39601;DHT22;25297;44.758;11.310;2023-04-15T05:10:04;10.80;86.20
39601;DHT22;25297;44.758;11.310;2023-04-15T05:12:29;10.80;86.50
39601;DHT22;25297;44.758;11.310;2023-04-15T05:14:55;10.80;86.80
39601;DHT22;25297;44.758;11.310;2023-04-15T05:17:21;10.80;87.00
39601;DHT22;25297;44.758;11.310;2023-04-15T05:19:46;10.80;87.40
39601;DHT22;25297;44.758;11.310;2023-04-15T05:22:12;10.90;87.70
39601;DHT22;25297;44.758;11.310;2023-04-15T05:24:37;10.90;88.10
39601;DHT22;25297;44.758;11.310;2023-04-15T05:27:03;10.90;88.40
39601;DHT22;25297;44.758;11.310;2023-04-15T05:29:29;11.00;88.50
39601;DHT22;25297;44.758;11.310;2023-04-15T05:31:54;11.00;88.50
39601;DHT22;25297;44.758;11.310;2023-04-15T05:34:20;11.00;88.60
39601;DHT22;25297;44.758;11.310;2023-04-15T05:36:45;11.10;88.70
39601;DHT22;25297;44.758;11.310;2023-04-15T05:39:11;11.10;88.70
39601;DHT22;25297;44.758;11.310;2023-04-15T05:41:37;11.10;88.90
39601;DHT22;25297;44.758;11.310;2023-04-15T05:44:02;11.20;89.20
39601;DHT22;25297;44.758;11.310;2023-04-15T05:46:28;11.20;89.70
39601;DHT22;25297;44.758;11.310;2023-04-15T05:48:53;11.20;89.90
39601;DHT22;25297;44.758;11.310;2023-04-15T05:51:19;11.30;90.20
39601;DHT22;25297;44.758;11.310;2023-04-15T05:53:44;11.30;90.50
39601;DHT22;25297;44.758;11.310;2023-04-15T05:56:10;11.30;90.70
39601;DHT22;25297;44.758;11.310;2023-04-15T05:58:36;11.30;90.90
39601;DHT22;25297;44.758;11.310;2023-04-15T06:01:02;11.40;91.20
39601;DHT22;25297;44.758;11.310;2023-04-15T06:03:27;11.40;91.50
39601;DHT22;25297;44.758;11.310;2023-04-15T06:05:53;11.40;91.70
39601;DHT22;25297;44.758;11.310;2023-04-15T06:08:19;11.50;92.00
39601;DHT22;25297;44.758;11.310;2023-04-15T06:10:44;11.60;92.20
39601;DHT22;25297;44.758;11.310;2023-04-15T06:13:10;11.60;92.40
39601;DHT22;25297;44.758;11.310;2023-04-15T06:15:35;11.70;92.60
39601;DHT22;25297;44.758;11.310;2023-04-15T06:18:01;11.70;92.80
39601;DHT22;25297;44.758;11.310;2023-04-15T06:20:27;11.80;92.90
39601;DHT22;25297;44.758;11.310;2023-04-15T06:22:52;11.90;93.10
39601;DHT22;25297;44.758;11.310;2023-04-15T06:25:18;11.90;93.30
39601;DHT22;25297;44.758;11.310;2023-04-15T06:27:44;12.00;93.50
39601;DHT22;25297;44.758;11.310;2023-04-15T06:30:09;12.10;93.70
39601;DHT22;25297;44.758;11.310;2023-04-15T06:32:35;12.20;93.80
39601;DHT22;25297;44.758;11.310;2023-04-15T06:35:01;12.20;93.90
39601;DHT22;25297;44.758;11.310;2023-04-15T06:37:26;12.30;94.00
39601;DHT22;25297;44.758;11.310;2023-04-15T06:39:52;12.40;93.90
39601;DHT22;25297;44.758;11.310;2023-04-15T06:42:18;12.40;94.00
39601;DHT22;25297;44.758;11.310;2023-04-15T06:44:43;12.50;94.20
39601;DHT22;25297;44.758;11.310;2023-04-15T06:47:09;12.60;94.30
39601;DHT22;25297;44.758;11.310;2023-04-15T06:49:34;12.60;94.60
39601;DHT22;25297;44.758;11.310;2023-04-15T06:52:00;12.70;94.70
39601;DHT22;25297;44.758;11.310;2023-04-15T06:54:26;12.70;94.80
39601;DHT22;25297;44.758;11.310;2023-04-15T06:56:51;12.80;94.80
39601;DHT22;25297;44.758;11.310;2023-04-15T06:59:17;12.90;94.90
39601;DHT22;25297;44.758;11.310;2023-04-15T07:01:43;12.90;95.10
39601;DHT22;25297;44.758;11.310;2023-04-15T07:04:08;13.10;95.20
39601;DHT22;25297;44.758;11.310;2023-04-15T07:06:34;13.10;95.40
39601;DHT22;25297;44.758;11.310;2023-04-15T07:09:00;13.10;95.70
39601;DHT22;25297;44.758;11.310;2023-04-15T07:11:26;13.20;95.70
39601;DHT22;25297;44.758;11.310;2023-04-15T07:13:51;13.30;95.80
39601;DHT22;25297;44.758;11.310;2023-04-15T07:16:17;13.30;96.10
39601;DHT22;25297;44.758;11.310;2023-04-15T07:18:42;13.40;96.20
39601;DHT22;25297;44.758;11.310;2023-04-15T07:21:08;13.50;96.20
39601;DHT22;25297;44.758;11.310;2023-04-15T07:23:33;13.50;96.20
39601;DHT22;25297;44.758;11.310;2023-04-15T07:25:59;13.60;96.20
39601;DHT22;25297;44.758;11.310;2023-04-15T07:28:25;13.70;96.10
39601;DHT22;25297;44.758;11.310;2023-04-15T07:30:51;13.70;96.00
39601;DHT22;25297;44.758;11.310;2023-04-15T07:33:16;13.80;95.90
39601;DHT22;25297;44.758;11.310;2023-04-15T07:35:42;13.80;95.70
39601;DHT22;25297;44.758;11.310;2023-04-15T07:38:07;13.90;95.70
39601;DHT22;25297;44.758;11.310;2023-04-15T07:40:33;14.00;95.80
39601;DHT22;25297;44.758;11.310;2023-04-15T07:42:58;14.10;95.90
39601;DHT22;25297;44.758;11.310;2023-04-15T07:45:24;14.10;95.90
39601;DHT22;25297;44.758;11.310;2023-04-15T07:47:49;14.10;95.90
39601;DHT22;25297;44.758;11.310;2023-04-15T07:50:15;14.20;96.30
39601;DHT22;25297;44.758;11.310;2023-04-15T07:52:41;14.30;96.00
39601;DHT22;25297;44.758;11.310;2023-04-15T07:55:07;14.30;96.00
39601;DHT22;25297;44.758;11.310;2023-04-15T07:57:34;14.40;96.10
39601;DHT22;25297;44.758;11.310;2023-04-15T07:59:59;14.40;96.10
39601;DHT22;25297;44.758;11.310;2023-04-15T08:02:25;14.50;96.00
39601;DHT22;25297;44.758;11.310;2023-04-15T08:04:51;14.60;95.80
39601;DHT22;25297;44.758;11.310;2023-04-15T08:07:17;14.60;95.80
39601;DHT22;25297;44.758;11.310;2023-04-15T08:09:43;14.70;95.40
39601;DHT22;25297;44.758;11.310;2023-04-15T08:12:08;14.80;95.50
39601;DHT22;25297;44.758;11.310;2023-04-15T08:14:36;14.80;95.50
39601;DHT22;25297;44.758;11.310;2023-04-15T08:17:02;14.90;95.40
39601;DHT22;25297;44.758;11.310;2023-04-15T08:19:28;15.00;95.30
39601;DHT22;25297;44.758;11.310;2023-04-15T08:21:54;15.00;95.10
39601;DHT22;25297;44.758;11.310;2023-04-15T08:24:20;15.10;94.90
39601;DHT22;25297;44.758;11.310;2023-04-15T08:26:46;15.20;94.90
39601;DHT22;25297;44.758;11.310;2023-04-15T08:29:11;15.30;94.80
39601;DHT22;25297;44.758;11.310;2023-04-15T08:31:37;15.30;94.60
39601;DHT22;25297;44.758;11.310;2023-04-15T08:34:02;15.40;94.40
39601;DHT22;25297;44.758;11.310;2023-04-15T08:36:28;15.40;94.20
39601;DHT22;25297;44.758;11.310;2023-04-15T08:38:53;15.50;94.00
39601;DHT22;25297;44.758;11.310;2023-04-15T08:41:23;15.50;93.90
39601;DHT22;25297;44.758;11.310;2023-04-15T08:43:52;15.60;93.80
39601;DHT22;25297;44.758;11.310;2023-04-15T08:46:19;15.70;93.70
39601;DHT22;25297;44.758;11.310;2023-04-15T08:48:45;15.80;93.70
39601;DHT22;25297;44.758;11.310;2023-04-15T08:51:12;15.80;93.80
39601;DHT22;25297;44.758;11.310;2023-04-15T08:53:41;15.80;93.90
39601;DHT22;25297;44.758;11.310;2023-04-15T08:56:07;15.90;93.80
39601;DHT22;25297;44.758;11.310;2023-04-15T08:58:34;15.90;93.60
39601;DHT22;25297;44.758;11.310;2023-04-15T09:01:00;16.00;93.40
39601;DHT22;25297;44.758;11.310;2023-04-15T09:03:26;16.00;93.10
39601;DHT22;25297;44.758;11.310;2023-04-15T09:05:52;16.00;93.00
39601;DHT22;25297;44.758;11.310;2023-04-15T09:08:17;16.10;93.10
39601;DHT22;25297;44.758;11.310;2023-04-15T09:10:43;16.20;93.10
39601;DHT22;25297;44.758;11.310;2023-04-15T09:13:09;16.20;92.90
39601;DHT22;25297;44.758;11.310;2023-04-15T09:15:36;16.20;92.70
39601;DHT22;25297;44.758;11.310;2023-04-15T09:18:02;16.30;92.60
39601;DHT22;25297;44.758;11.310;2023-04-15T09:20:28;16.30;92.80
39601;DHT22;25297;44.758;11.310;2023-04-15T09:22:54;16.40;93.00
39601;DHT22;25297;44.758;11.310;2023-04-15T09:27:58;16.50;92.70
39601;DHT22;25297;44.758;11.310;2023-04-15T09:30:24;16.50;92.50
39601;DHT22;25297;44.758;11.310;2023-04-15T09:32:51;16.60;92.30
39601;DHT22;25297;44.758;11.310;2023-04-15T09:35:17;16.60;91.60
39601;DHT22;25297;44.758;11.310;2023-04-15T09:37:43;16.60;90.60
39601;DHT22;25297;44.758;11.310;2023-04-15T09:40:08;16.70;90.60
39601;DHT22;25297;44.758;11.310;2023-04-15T09:42:34;16.70;90.20
39601;DHT22;25297;44.758;11.310;2023-04-15T09:45:09;16.80;90.00
39601;DHT22;25297;44.758;11.310;2023-04-15T09:47:35;16.80;89.50
39601;DHT22;25297;44.758;11.310;2023-04-15T09:50:01;16.80;89.50
39601;DHT22;25297;44.758;11.310;2023-04-15T09:52:27;16.90;88.80
39601;DHT22;25297;44.758;11.310;2023-04-15T09:54:53;17.00;88.50
39601;DHT22;25297;44.758;11.310;2023-04-15T09:57:20;17.00;87.40
39601;DHT22;25297;44.758;11.310;2023-04-15T09:59:46;17.00;84.10
39601;DHT22;25297;44.758;11.310;2023-04-15T10:02:12;17.00;84.20
39601;DHT22;25297;44.758;11.310;2023-04-15T10:04:39;17.10;85.40
39601;DHT22;25297;44.758;11.310;2023-04-15T10:07:04;17.10;84.90
39601;DHT22;25297;44.758;11.310;2023-04-15T10:09:30;17.10;85.00
39601;DHT22;25297;44.758;11.310;2023-04-15T10:11:57;17.20;85.90
39601;DHT22;25297;44.758;11.310;2023-04-15T10:14:23;17.20;85.60
39601;DHT22;25297;44.758;11.310;2023-04-15T10:16:50;17.30;86.10
39601;DHT22;25297;44.758;11.310;2023-04-15T10:19:18;17.30;84.80
39601;DHT22;25297;44.758;11.310;2023-04-15T10:21:45;17.40;84.40
39601;DHT22;25297;44.758;11.310;2023-04-15T10:24:11;17.40;84.80
39601;DHT22;25297;44.758;11.310;2023-04-15T10:26:37;17.40;84.40
39601;DHT22;25297;44.758;11.310;2023-04-15T10:29:02;17.40;84.00
39601;DHT22;25297;44.758;11.310;2023-04-15T10:31:29;17.50;83.70
39601;DHT22;25297;44.758;11.310;2023-04-15T10:33:55;17.50;82.60
39601;DHT22;25297;44.758;11.310;2023-04-15T10:36:21;17.50;82.70
39601;DHT22;25297;44.758;11.310;2023-04-15T10:38:47;17.50;82.90
39601;DHT22;25297;44.758;11.310;2023-04-15T10:43:39;17.60;83.70
39601;DHT22;25297;44.758;11.310;2023-04-15T10:46:07;17.60;83.00
39601;DHT22;25297;44.758;11.310;2023-04-15T10:48:34;17.60;81.90
39601;DHT22;25297;44.758;11.310;2023-04-15T10:51:00;17.70;81.50
39601;DHT22;25297;44.758;11.310;2023-04-15T10:53:29;17.70;80.30
39601;DHT22;25297;44.758;11.310;2023-04-15T10:55:56;17.70;80.10
39601;DHT22;25297;44.758;11.310;2023-04-15T10:58:22;17.70;80.30
39601;DHT22;25297;44.758;11.310;2023-04-15T11:00:49;17.70;80.10
39601;DHT22;25297;44.758;11.310;2023-04-15T11:03:37;17.80;79.20
39601;DHT22;25297;44.758;11.310;2023-04-15T11:06:03;17.70;78.80
39601;DHT22;25297;44.758;11.310;2023-04-15T11:11:13;17.80;79.30
39601;DHT22;25297;44.758;11.310;2023-04-15T11:13:46;17.80;77.70
39601;DHT22;25297;44.758;11.310;2023-04-15T11:16:12;17.90;77.10
39601;DHT22;25297;44.758;11.310;2023-04-15T11:18:38;17.90;77.70
39601;DHT22;25297;44.758;11.310;2023-04-15T11:21:04;17.90;77.80
39601;DHT22;25297;44.758;11.310;2023-04-15T11:23:37;18.00;78.80
39601;DHT22;25297;44.758;11.310;2023-04-15T11:26:04;18.00;79.30
39601;DHT22;25297;44.758;11.310;2023-04-15T11:28:31;18.00;78.80
39601;DHT22;25297;44.758;11.310;2023-04-15T11:30:57;18.10;76.80
39601;DHT22;25297;44.758;11.310;2023-04-15T11:33:23;18.10;76.90
39601;DHT22;25297;44.758;11.310;2023-04-15T11:35:49;18.10;76.50
39601;DHT22;25297;44.758;11.310;2023-04-15T11:38:15;18.20;76.10
39601;DHT22;25297;44.758;11.310;2023-04-15T11:40:41;18.20;76.70
39601;DHT22;25297;44.758;11.310;2023-04-15T11:43:07;18.30;76.50
39601;DHT22;25297;44.758;11.310;2023-04-15T11:45:34;18.30;77.00
39601;DHT22;25297;44.758;11.310;2023-04-15T11:48:09;18.30;77.10
39601;DHT22;25297;44.758;11.310;2023-04-15T11:50:35;18.30;76.30
39601;DHT22;25297;44.758;11.310;2023-04-15T11:53:02;18.30;76.50
39601;DHT22;25297;44.758;11.310;2023-04-15T11:55:28;18.40;75.50
39601;DHT22;25297;44.758;11.310;2023-04-15T11:58:14;18.40;75.00
39601;DHT22;25297;44.758;11.310;2023-04-15T12:00:41;18.50;75.80
39601;DHT22;25297;44.758;11.310;2023-04-15T12:08:22;18.60;75.10
39601;DHT22;25297;44.758;11.310;2023-04-15T12:10:48;18.60;75.30
39601;DHT22;25297;44.758;11.310;2023-04-15T12:13:13;18.60;74.90
39601;DHT22;25297;44.758;11.310;2023-04-15T12:15:39;18.60;73.80
39601;DHT22;25297;44.758;11.310;2023-04-15T12:18:04;18.70;75.10
39601;DHT22;25297;44.758;11.310;2023-04-15T12:20:30;18.70;76.00
39601;DHT22;25297;44.758;11.310;2023-04-15T12:23:04;18.80;76.60
39601;DHT22;25297;44.758;11.310;2023-04-15T12:25:33;18.80;75.30
39601;DHT22;25297;44.758;11.310;2023-04-15T12:27:58;18.90;75.70
39601;DHT22;25297;44.758;11.310;2023-04-15T12:30:24;18.90;75.30
39601;DHT22;25297;44.758;11.310;2023-04-15T12:32:50;18.90;75.80
39601;DHT22;25297;44.758;11.310;2023-04-15T12:35:16;18.90;76.20
39601;DHT22;25297;44.758;11.310;2023-04-15T12:37:43;19.00;75.10
39601;DHT22;25297;44.758;11.310;2023-04-15T12:40:09;19.00;75.00
39601;DHT22;25297;44.758;11.310;2023-04-15T12:42:35;19.00;74.30
39601;DHT22;25297;44.758;11.310;2023-04-15T12:45:00;19.00;74.60
39601;DHT22;25297;44.758;11.310;2023-04-15T12:47:26;19.10;72.80
39601;DHT22;25297;44.758;11.310;2023-04-15T12:49:52;19.10;73.20
39601;DHT22;25297;44.758;11.310;2023-04-15T12:52:19;19.10;73.20
39601;DHT22;25297;44.758;11.310;2023-04-15T12:54:47;19.20;73.00
39601;DHT22;25297;44.758;11.310;2023-04-15T12:57:12;19.20;72.40
39601;DHT22;25297;44.758;11.310;2023-04-15T12:59:38;19.20;72.60
39601;DHT22;25297;44.758;11.310;2023-04-15T13:02:03;19.20;72.10
39601;DHT22;25297;44.758;11.310;2023-04-15T13:04:29;19.20;71.70
39601;DHT22;25297;44.758;11.310;2023-04-15T13:06:55;19.20;72.00
39601;DHT22;25297;44.758;11.310;2023-04-15T13:09:21;19.20;72.40
39601;DHT22;25297;44.758;11.310;2023-04-15T13:11:46;19.30;71.60
39601;DHT22;25297;44.758;11.310;2023-04-15T13:14:12;19.20;70.20
39601;DHT22;25297;44.758;11.310;2023-04-15T13:16:37;19.30;70.80
39601;DHT22;25297;44.758;11.310;2023-04-15T13:19:03;19.30;71.00
39601;DHT22;25297;44.758;11.310;2023-04-15T13:21:28;19.20;71.80
39601;DHT22;25297;44.758;11.310;2023-04-15T13:23:55;19.20;72.70
39601;DHT22;25297;44.758;11.310;2023-04-15T13:26:20;19.30;72.80
39601;DHT22;25297;44.758;11.310;2023-04-15T13:28:46;19.20;71.40
39601;DHT22;25297;44.758;11.310;2023-04-15T13:31:12;19.20;71.50
39601;DHT22;25297;44.758;11.310;2023-04-15T13:33:38;19.30;72.40
39601;DHT22;25297;44.758;11.310;2023-04-15T13:36:03;19.30;71.90
39601;DHT22;25297;44.758;11.310;2023-04-15T13:38:29;19.30;72.50
39601;DHT22;25297;44.758;11.310;2023-04-15T13:40:54;19.30;71.20
39601;DHT22;25297;44.758;11.310;2023-04-15T13:43:20;19.30;71.20
39601;DHT22;25297;44.758;11.310;2023-04-15T13:45:45;19.30;71.60
39601;DHT22;25297;44.758;11.310;2023-04-15T13:48:11;19.30;72.20
39601;DHT22;25297;44.758;11.310;2023-04-15T13:50:37;19.30;71.80
39601;DHT22;25297;44.758;11.310;2023-04-15T13:53:02;19.30;70.30
39601;DHT22;25297;44.758;11.310;2023-04-15T13:55:28;19.30;70.80
39601;DHT22;25297;44.758;11.310;2023-04-15T13:57:53;19.30;70.60
39601;DHT22;25297;44.758;11.310;2023-04-15T14:00:19;19.30;70.30
39601;DHT22;25297;44.758;11.310;2023-04-15T14:02:45;19.30;71.20
39601;DHT22;25297;44.758;11.310;2023-04-15T14:05:10;19.30;72.00
39601;DHT22;25297;44.758;11.310;2023-04-15T14:07:36;19.40;72.30
39601;DHT22;25297;44.758;11.310;2023-04-15T14:10:02;19.40;72.60
39601;DHT22;25297;44.758;11.310;2023-04-15T14:12:27;19.40;73.00
39601;DHT22;25297;44.758;11.310;2023-04-15T14:14:53;19.40;73.80
39601;DHT22;25297;44.758;11.310;2023-04-15T14:17:18;19.50;74.40
39601;DHT22;25297;44.758;11.310;2023-04-15T14:19:44;19.50;74.40
39601;DHT22;25297;44.758;11.310;2023-04-15T14:22:09;19.40;74.70
39601;DHT22;25297;44.758;11.310;2023-04-15T14:24:35;19.50;74.60
39601;DHT22;25297;44.758;11.310;2023-04-15T14:27:00;19.40;75.00
39601;DHT22;25297;44.758;11.310;2023-04-15T14:29:26;19.50;74.60
39601;DHT22;25297;44.758;11.310;2023-04-15T14:31:52;19.50;74.30
39601;DHT22;25297;44.758;11.310;2023-04-15T14:34:18;19.50;74.10
39601;DHT22;25297;44.758;11.310;2023-04-15T14:36:43;19.50;73.50
39601;DHT22;25297;44.758;11.310;2023-04-15T14:39:09;19.50;73.20
39601;DHT22;25297;44.758;11.310;2023-04-15T14:41:34;19.40;73.80
39601;DHT22;25297;44.758;11.310;2023-04-15T14:44:00;19.40;74.20
39601;DHT22;25297;44.758;11.310;2023-04-15T14:46:26;19.50;74.20
39601;DHT22;25297;44.758;11.310;2023-04-15T14:48:51;19.50;73.90
39601;DHT22;25297;44.758;11.310;2023-04-15T14:51:17;19.50;73.40
39601;DHT22;25297;44.758;11.310;2023-04-15T14:53:42;19.50;73.10
39601;DHT22;25297;44.758;11.310;2023-04-15T14:56:08;19.40;73.50
39601;DHT22;25297;44.758;11.310;2023-04-15T14:58:34;19.40;73.60
39601;DHT22;25297;44.758;11.310;2023-04-15T15:01:00;19.40;73.60
39601;DHT22;25297;44.758;11.310;2023-04-15T15:03:27;19.40;73.80
39601;DHT22;25297;44.758;11.310;2023-04-15T15:05:52;19.40;73.30
39601;DHT22;25297;44.758;11.310;2023-04-15T15:08:18;19.40;73.50
39601;DHT22;25297;44.758;11.310;2023-04-15T15:10:43;19.40;73.70
39601;DHT22;25297;44.758;11.310;2023-04-15T15:13:09;19.40;74.40
39601;DHT22;25297;44.758;11.310;2023-04-15T15:15:35;19.40;74.60
39601;DHT22;25297;44.758;11.310;2023-04-15T15:18:01;19.40;74.20
39601;DHT22;25297;44.758;11.310;2023-04-15T15:20:27;19.40;74.10